Primer Ensanche, Spain
Current Conditions -  °F | °C
As of 2:00 PM on Sunday 21 Dec 2014 (Local Time) from LEPP Reporting Station
Clear Clear  
Wind Chill: 54°   Ceiling: Unl
Heat Index: 54°   Visibility: 6mi
Dew Point: 39°   Wind: 8mph
Humidity: 58%   Direction: 340°NNW
Pressure: 30.5"   Gusts: NA
Location:  42.81°N, 1.65°W
Report Text: LEPP 211300Z 34007KT 310V010 CAVOK 12/04 Q1033
Loading
Personal Weather Stations






























Interactive Weather Map New forecast layout! Learn more

10-Day Weather Forecast

Advertisements
Track Severe Weather on mobile